Terminal Aerodrome Forecast
Issued by NWS La Crosse, WI

Home | Current Version | Previous Version | Text Only | Print | Product List | Glossary On
Versions: 1 2 3 4 5 6 7 8 9 10 11 12 13 14 15 16 17 18 19
000
FTUS43 KARX 230525
TAFRST
TAF
KRST 230525Z 2306/2406 18013KT P6SM VCSH SCT035 BKN070
     FM230900 18012KT P6SM -SHRA BKN035
      TEMPO 2310/2314 5SM -SHRA BKN020
     FM231400 20008KT P6SM VCSH BKN020
     FM232000 26008KT P6SM SCT020=

USA.gov is the U.S. government's official web portal to all federal, state and local government web resources and services.